Amazonia, Missouri
Current Conditions -  °F | °C
As of 10:53 AM on Thursday 30 Oct 2014 (Local Time) from KSTJ Reporting Station
Clear Clear  
Wind Chill: 58°   Ceiling: Unl
Heat Index: 58°   Visibility: 10mi
Dew Point: 41°   Wind: 10mph
Humidity: 53%   Direction: 330°NNW
Pressure: 30.03"   Gusts: NA
Location:  39.89°N, 94.89°W
Report Text: KSTJ 301553Z 33009KT 10SM CLR 14/05 A3003 RMK AO2 SLP170 T01440050
Loading
Personal Weather Stations






























Interactive Weather Map
Tropical Storm Tracking
New forecast layout! Learn more

10-Day Weather Forecast

Advertisements
Track Severe Weather on mobile